Terminal Aerodrome Forecast
Issued by NWS

Home | Current Version | Previous Version | Text Only | Print | Product List | Glossary On
Versions: 1 2 3 4 5 6 7 8 9 10 11 12 13 14 15 16 17 18 19
000
FTUS44 KLZK 242300
TAFBPK
TAF
KBPK 242330Z 2500/2524 12008KT 5SM SHRA BR OVC008
     FM250300 18009KT 5SM BR VCSH OVC009 WS020/21045KT
     FM251400 23010G25KT P6SM SCT015
     FM252100 27010G25KT P6SM SKC=

USA.gov is the U.S. government's official web portal to all federal, state and local government web resources and services.